sensor_id;sensor_type;location;lat;lon;timestamp;P1;durP1;ratioP1;P2;durP2;ratioP2
8849;SDS011;5638;50.860;4.698;2022-12-24T00:00:29;19.10;;;3.50;;
8849;SDS011;5638;50.860;4.698;2022-12-24T00:02:55;14.17;;;4.27;;
8849;SDS011;5638;50.860;4.698;2022-12-24T00:05:21;17.27;;;4.50;;
8849;SDS011;5638;50.860;4.698;2022-12-24T00:07:47;17.00;;;4.07;;
8849;SDS011;5638;50.860;4.698;2022-12-24T00:10:12;23.67;;;3.50;;
8849;SDS011;5638;50.860;4.698;2022-12-24T00:12:38;17.80;;;5.00;;
8849;SDS011;5638;50.860;4.698;2022-12-24T00:15:05;10.77;;;3.73;;
8849;SDS011;5638;50.860;4.698;2022-12-24T00:17:31;20.03;;;4.40;;
8849;SDS011;5638;50.860;4.698;2022-12-24T00:19:57;20.50;;;4.13;;
8849;SDS011;5638;50.860;4.698;2022-12-24T00:22:23;15.80;;;4.33;;
8849;SDS011;5638;50.860;4.698;2022-12-24T00:24:49;19.47;;;4.23;;
8849;SDS011;5638;50.860;4.698;2022-12-24T00:27:15;21.07;;;4.90;;
8849;SDS011;5638;50.860;4.698;2022-12-24T00:29:42;17.87;;;4.37;;
8849;SDS011;5638;50.860;4.698;2022-12-24T00:32:08;18.10;;;3.77;;
8849;SDS011;5638;50.860;4.698;2022-12-24T00:34:38;18.70;;;4.73;;
8849;SDS011;5638;50.860;4.698;2022-12-24T00:37:04;15.13;;;4.00;;
8849;SDS011;5638;50.860;4.698;2022-12-24T00:39:31;17.60;;;4.13;;
8849;SDS011;5638;50.860;4.698;2022-12-24T00:41:57;16.13;;;3.90;;
8849;SDS011;5638;50.860;4.698;2022-12-24T00:44:23;14.70;;;4.17;;
8849;SDS011;5638;50.860;4.698;2022-12-24T00:46:50;17.87;;;4.53;;
8849;SDS011;5638;50.860;4.698;2022-12-24T00:49:16;16.20;;;4.03;;
8849;SDS011;5638;50.860;4.698;2022-12-24T00:51:42;22.67;;;4.33;;
8849;SDS011;5638;50.860;4.698;2022-12-24T00:54:08;14.10;;;4.40;;
8849;SDS011;5638;50.860;4.698;2022-12-24T00:56:34;12.50;;;4.10;;
8849;SDS011;5638;50.860;4.698;2022-12-24T00:59:00;16.97;;;4.00;;
8849;SDS011;5638;50.860;4.698;2022-12-24T01:01:26;16.20;;;4.33;;
8849;SDS011;5638;50.860;4.698;2022-12-24T01:03:53;13.63;;;4.27;;
8849;SDS011;5638;50.860;4.698;2022-12-24T01:06:39;18.53;;;3.73;;
8849;SDS011;5638;50.860;4.698;2022-12-24T01:09:05;17.90;;;4.30;;
8849;SDS011;5638;50.860;4.698;2022-12-24T01:11:31;22.90;;;4.50;;
8849;SDS011;5638;50.860;4.698;2022-12-24T01:13:57;19.57;;;4.07;;
8849;SDS011;5638;50.860;4.698;2022-12-24T01:16:23;16.93;;;4.40;;
8849;SDS011;5638;50.860;4.698;2022-12-24T01:18:49;19.07;;;4.57;;
8849;SDS011;5638;50.860;4.698;2022-12-24T01:21:14;16.83;;;4.07;;
8849;SDS011;5638;50.860;4.698;2022-12-24T01:23:41;20.03;;;4.70;;
8849;SDS011;5638;50.860;4.698;2022-12-24T01:26:09;16.93;;;4.40;;
8849;SDS011;5638;50.860;4.698;2022-12-24T01:28:36;16.23;;;4.33;;
8849;SDS011;5638;50.860;4.698;2022-12-24T01:31:05;14.13;;;3.73;;
8849;SDS011;5638;50.860;4.698;2022-12-24T01:33:43;16.13;;;4.07;;
8849;SDS011;5638;50.860;4.698;2022-12-24T01:36:10;18.27;;;3.77;;
8849;SDS011;5638;50.860;4.698;2022-12-24T01:38:37;15.87;;;4.00;;
8849;SDS011;5638;50.860;4.698;2022-12-24T01:41:04;11.23;;;3.37;;
8849;SDS011;5638;50.860;4.698;2022-12-24T01:43:48;11.90;;;2.83;;
8849;SDS011;5638;50.860;4.698;2022-12-24T01:46:18;13.47;;;3.37;;
8849;SDS011;5638;50.860;4.698;2022-12-24T01:48:59;12.20;;;2.73;;
8849;SDS011;5638;50.860;4.698;2022-12-24T01:51:40;7.03;;;2.43;;
8849;SDS011;5638;50.860;4.698;2022-12-24T01:57:01;4.53;;;1.90;;
8849;SDS011;5638;50.860;4.698;2022-12-24T01:59:33;4.20;;;1.97;;
8849;SDS011;5638;50.860;4.698;2022-12-24T02:02:02;8.47;;;1.90;;
8849;SDS011;5638;50.860;4.698;2022-12-24T02:04:33;4.13;;;2.23;;
8849;SDS011;5638;50.860;4.698;2022-12-24T02:07:06;7.30;;;1.80;;
8849;SDS011;5638;50.860;4.698;2022-12-24T02:09:33;8.20;;;2.40;;
8849;SDS011;5638;50.860;4.698;2022-12-24T02:12:01;5.27;;;2.07;;
8849;SDS011;5638;50.860;4.698;2022-12-24T02:14:30;11.10;;;2.60;;
8849;SDS011;5638;50.860;4.698;2022-12-24T02:26:26;9.90;;;2.27;;
8849;SDS011;5638;50.860;4.698;2022-12-24T02:29:10;17.50;;;4.07;;
8849;SDS011;5638;50.860;4.698;2022-12-24T02:32:00;11.30;;;3.37;;
8849;SDS011;5638;50.860;4.698;2022-12-24T02:34:39;13.37;;;3.53;;
8849;SDS011;5638;50.860;4.698;2022-12-24T02:37:25;13.27;;;3.33;;
8849;SDS011;5638;50.860;4.698;2022-12-24T02:42:48;21.67;;;3.70;;
8849;SDS011;5638;50.860;4.698;2022-12-24T02:45:31;15.60;;;4.17;;
8849;SDS011;5638;50.860;4.698;2022-12-24T02:47:59;16.87;;;3.87;;
8849;SDS011;5638;50.860;4.698;2022-12-24T02:50:26;13.67;;;3.50;;
8849;SDS011;5638;50.860;4.698;2022-12-24T02:52:53;13.20;;;3.83;;
8849;SDS011;5638;50.860;4.698;2022-12-24T03:01:49;11.93;;;3.00;;
8849;SDS011;5638;50.860;4.698;2022-12-24T03:07:18;12.63;;;3.50;;
8849;SDS011;5638;50.860;4.698;2022-12-24T03:12:51;10.07;;;3.17;;
8849;SDS011;5638;50.860;4.698;2022-12-24T03:15:24;12.13;;;2.93;;
8849;SDS011;5638;50.860;4.698;2022-12-24T03:17:54;9.90;;;3.43;;
8849;SDS011;5638;50.860;4.698;2022-12-24T03:20:36;10.73;;;3.67;;
8849;SDS011;5638;50.860;4.698;2022-12-24T03:23:08;13.43;;;3.40;;
8849;SDS011;5638;50.860;4.698;2022-12-24T03:25:34;12.53;;;3.10;;
8849;SDS011;5638;50.860;4.698;2022-12-24T03:28:06;8.47;;;2.83;;
8849;SDS011;5638;50.860;4.698;2022-12-24T03:30:38;11.47;;;3.13;;
8849;SDS011;5638;50.860;4.698;2022-12-24T03:33:06;14.10;;;3.20;;
8849;SDS011;5638;50.860;4.698;2022-12-24T03:35:33;15.37;;;3.67;;
8849;SDS011;5638;50.860;4.698;2022-12-24T03:37:59;14.30;;;4.33;;
8849;SDS011;5638;50.860;4.698;2022-12-24T03:40:25;10.30;;;3.17;;
8849;SDS011;5638;50.860;4.698;2022-12-24T03:42:51;13.97;;;3.40;;
8849;SDS011;5638;50.860;4.698;2022-12-24T03:45:17;9.10;;;3.17;;
8849;SDS011;5638;50.860;4.698;2022-12-24T03:47:43;20.30;;;4.40;;
8849;SDS011;5638;50.860;4.698;2022-12-24T03:50:08;12.00;;;3.73;;
8849;SDS011;5638;50.860;4.698;2022-12-24T03:52:35;12.23;;;3.53;;
8849;SDS011;5638;50.860;4.698;2022-12-24T03:55:01;18.80;;;3.77;;
8849;SDS011;5638;50.860;4.698;2022-12-24T03:57:27;12.73;;;4.03;;
8849;SDS011;5638;50.860;4.698;2022-12-24T03:59:53;10.87;;;3.23;;
8849;SDS011;5638;50.860;4.698;2022-12-24T04:02:19;14.00;;;4.30;;
8849;SDS011;5638;50.860;4.698;2022-12-24T04:04:45;12.97;;;3.77;;
8849;SDS011;5638;50.860;4.698;2022-12-24T04:07:11;13.67;;;3.87;;
8849;SDS011;5638;50.860;4.698;2022-12-24T04:09:36;13.50;;;3.87;;
8849;SDS011;5638;50.860;4.698;2022-12-24T04:12:03;17.57;;;3.83;;
8849;SDS011;5638;50.860;4.698;2022-12-24T04:14:29;12.87;;;4.03;;
8849;SDS011;5638;50.860;4.698;2022-12-24T04:16:55;14.07;;;3.67;;
8849;SDS011;5638;50.860;4.698;2022-12-24T04:19:20;21.13;;;3.93;;
8849;SDS011;5638;50.860;4.698;2022-12-24T04:21:46;12.30;;;3.67;;
8849;SDS011;5638;50.860;4.698;2022-12-24T04:24:12;9.90;;;3.27;;
8849;SDS011;5638;50.860;4.698;2022-12-24T04:26:38;22.73;;;4.20;;
8849;SDS011;5638;50.860;4.698;2022-12-24T04:29:04;16.83;;;3.87;;
8849;SDS011;5638;50.860;4.698;2022-12-24T04:31:30;16.63;;;4.43;;
8849;SDS011;5638;50.860;4.698;2022-12-24T04:33:55;14.30;;;3.87;;
8849;SDS011;5638;50.860;4.698;2022-12-24T04:36:22;16.87;;;4.47;;
8849;SDS011;5638;50.860;4.698;2022-12-24T04:38:48;18.40;;;4.10;;
8849;SDS011;5638;50.860;4.698;2022-12-24T04:41:18;19.27;;;3.93;;
8849;SDS011;5638;50.860;4.698;2022-12-24T04:43:47;10.63;;;3.83;;
8849;SDS011;5638;50.860;4.698;2022-12-24T04:46:14;17.77;;;4.57;;
8849;SDS011;5638;50.860;4.698;2022-12-24T04:48:43;15.47;;;3.83;;
8849;SDS011;5638;50.860;4.698;2022-12-24T04:51:12;20.63;;;4.07;;
8849;SDS011;5638;50.860;4.698;2022-12-24T04:53:39;13.60;;;4.00;;
8849;SDS011;5638;50.860;4.698;2022-12-24T04:56:13;15.83;;;4.13;;
8849;SDS011;5638;50.860;4.698;2022-12-24T04:58:42;20.53;;;4.13;;
8849;SDS011;5638;50.860;4.698;2022-12-24T05:01:29;18.93;;;4.00;;
8849;SDS011;5638;50.860;4.698;2022-12-24T05:03:56;18.97;;;4.10;;
8849;SDS011;5638;50.860;4.698;2022-12-24T05:06:24;16.07;;;3.70;;
8849;SDS011;5638;50.860;4.698;2022-12-24T05:08:56;14.93;;;4.03;;
8849;SDS011;5638;50.860;4.698;2022-12-24T05:11:23;18.60;;;4.30;;
8849;SDS011;5638;50.860;4.698;2022-12-24T05:13:49;20.63;;;4.37;;
8849;SDS011;5638;50.860;4.698;2022-12-24T05:16:16;20.87;;;3.97;;
8849;SDS011;5638;50.860;4.698;2022-12-24T05:18:45;17.73;;;3.83;;
8849;SDS011;5638;50.860;4.698;2022-12-24T05:21:15;18.33;;;4.37;;
8849;SDS011;5638;50.860;4.698;2022-12-24T05:23:45;19.37;;;4.50;;
8849;SDS011;5638;50.860;4.698;2022-12-24T05:29:06;16.13;;;3.57;;
8849;SDS011;5638;50.860;4.698;2022-12-24T05:31:36;20.33;;;4.47;;
8849;SDS011;5638;50.860;4.698;2022-12-24T05:34:04;14.97;;;4.20;;
8849;SDS011;5638;50.860;4.698;2022-12-24T05:36:31;17.67;;;4.23;;
8849;SDS011;5638;50.860;4.698;2022-12-24T05:38:57;19.13;;;3.87;;
8849;SDS011;5638;50.860;4.698;2022-12-24T05:41:23;17.67;;;3.63;;
8849;SDS011;5638;50.860;4.698;2022-12-24T05:43:50;20.20;;;4.57;;
8849;SDS011;5638;50.860;4.698;2022-12-24T05:46:17;20.13;;;4.33;;
8849;SDS011;5638;50.860;4.698;2022-12-24T05:48:47;16.40;;;3.60;;
8849;SDS011;5638;50.860;4.698;2022-12-24T05:51:15;15.70;;;3.73;;
8849;SDS011;5638;50.860;4.698;2022-12-24T05:53:43;16.87;;;3.40;;
8849;SDS011;5638;50.860;4.698;2022-12-24T05:56:12;18.77;;;4.27;;
8849;SDS011;5638;50.860;4.698;2022-12-24T05:58:43;19.07;;;4.27;;
8849;SDS011;5638;50.860;4.698;2022-12-24T06:01:09;21.00;;;4.53;;
8849;SDS011;5638;50.860;4.698;2022-12-24T06:03:37;23.47;;;4.03;;
8849;SDS011;5638;50.860;4.698;2022-12-24T06:06:13;20.43;;;4.50;;
8849;SDS011;5638;50.860;4.698;2022-12-24T06:08:43;19.07;;;3.97;;
8849;SDS011;5638;50.860;4.698;2022-12-24T06:11:10;12.73;;;3.43;;
8849;SDS011;5638;50.860;4.698;2022-12-24T06:13:39;21.10;;;5.43;;
8849;SDS011;5638;50.860;4.698;2022-12-24T06:16:08;14.77;;;3.87;;
8849;SDS011;5638;50.860;4.698;2022-12-24T06:18:39;18.43;;;3.63;;
8849;SDS011;5638;50.860;4.698;2022-12-24T06:21:06;17.83;;;4.13;;
8849;SDS011;5638;50.860;4.698;2022-12-24T06:23:33;24.27;;;4.80;;
8849;SDS011;5638;50.860;4.698;2022-12-24T06:26:03;16.83;;;3.43;;
8849;SDS011;5638;50.860;4.698;2022-12-24T06:28:31;17.90;;;4.83;;
8849;SDS011;5638;50.860;4.698;2022-12-24T06:31:01;15.00;;;3.73;;
8849;SDS011;5638;50.860;4.698;2022-12-24T06:33:29;14.90;;;3.57;;
8849;SDS011;5638;50.860;4.698;2022-12-24T06:35:59;13.47;;;3.90;;
8849;SDS011;5638;50.860;4.698;2022-12-24T06:38:25;15.93;;;4.20;;
8849;SDS011;5638;50.860;4.698;2022-12-24T06:40:51;19.80;;;3.93;;
8849;SDS011;5638;50.860;4.698;2022-12-24T06:43:20;20.77;;;4.20;;
8849;SDS011;5638;50.860;4.698;2022-12-24T06:45:46;14.93;;;3.80;;
8849;SDS011;5638;50.860;4.698;2022-12-24T06:48:12;17.57;;;4.03;;
8849;SDS011;5638;50.860;4.698;2022-12-24T06:50:39;26.33;;;5.07;;
8849;SDS011;5638;50.860;4.698;2022-12-24T06:53:06;15.90;;;4.07;;
8849;SDS011;5638;50.860;4.698;2022-12-24T06:55:32;14.07;;;4.07;;
8849;SDS011;5638;50.860;4.698;2022-12-24T06:57:59;20.10;;;4.00;;
8849;SDS011;5638;50.860;4.698;2022-12-24T07:00:25;15.83;;;3.77;;
8849;SDS011;5638;50.860;4.698;2022-12-24T07:02:51;16.80;;;4.63;;
8849;SDS011;5638;50.860;4.698;2022-12-24T07:05:17;13.33;;;4.23;;
8849;SDS011;5638;50.860;4.698;2022-12-24T07:07:43;19.60;;;4.03;;
8849;SDS011;5638;50.860;4.698;2022-12-24T07:10:10;24.43;;;5.20;;
8849;SDS011;5638;50.860;4.698;2022-12-24T07:12:40;25.83;;;5.47;;
8849;SDS011;5638;50.860;4.698;2022-12-24T07:15:08;13.27;;;3.53;;
8849;SDS011;5638;50.860;4.698;2022-12-24T07:17:34;18.20;;;4.43;;
8849;SDS011;5638;50.860;4.698;2022-12-24T07:20:00;24.70;;;4.40;;
8849;SDS011;5638;50.860;4.698;2022-12-24T07:22:27;23.90;;;4.77;;
8849;SDS011;5638;50.860;4.698;2022-12-24T07:24:52;15.67;;;4.97;;
8849;SDS011;5638;50.860;4.698;2022-12-24T07:27:18;15.77;;;4.17;;
8849;SDS011;5638;50.860;4.698;2022-12-24T07:29:44;13.83;;;4.30;;
8849;SDS011;5638;50.860;4.698;2022-12-24T07:32:10;16.80;;;4.33;;
8849;SDS011;5638;50.860;4.698;2022-12-24T07:34:36;20.03;;;3.73;;
8849;SDS011;5638;50.860;4.698;2022-12-24T07:37:03;16.77;;;4.07;;
8849;SDS011;5638;50.860;4.698;2022-12-24T07:39:30;19.50;;;4.50;;
8849;SDS011;5638;50.860;4.698;2022-12-24T07:41:56;14.50;;;4.57;;
8849;SDS011;5638;50.860;4.698;2022-12-24T07:44:22;16.37;;;4.03;;
8849;SDS011;5638;50.860;4.698;2022-12-24T07:46:48;15.90;;;4.03;;
8849;SDS011;5638;50.860;4.698;2022-12-24T07:49:13;14.80;;;4.07;;
8849;SDS011;5638;50.860;4.698;2022-12-24T07:51:39;25.23;;;4.93;;
8849;SDS011;5638;50.860;4.698;2022-12-24T07:54:05;14.30;;;4.43;;
8849;SDS011;5638;50.860;4.698;2022-12-24T07:56:31;18.90;;;4.53;;
8849;SDS011;5638;50.860;4.698;2022-12-24T07:58:57;20.30;;;4.07;;
8849;SDS011;5638;50.860;4.698;2022-12-24T08:01:24;19.23;;;4.70;;
8849;SDS011;5638;50.860;4.698;2022-12-24T08:03:50;14.43;;;3.97;;
8849;SDS011;5638;50.860;4.698;2022-12-24T08:06:18;24.47;;;4.90;;
8849;SDS011;5638;50.860;4.698;2022-12-24T08:08:45;22.07;;;4.87;;
8849;SDS011;5638;50.860;4.698;2022-12-24T08:11:11;20.07;;;4.17;;
8849;SDS011;5638;50.860;4.698;2022-12-24T08:13:37;23.60;;;4.40;;
8849;SDS011;5638;50.860;4.698;2022-12-24T08:16:03;17.80;;;4.60;;
8849;SDS011;5638;50.860;4.698;2022-12-24T08:18:30;18.47;;;4.33;;
8849;SDS011;5638;50.860;4.698;2022-12-24T08:20:56;11.73;;;3.73;;
8849;SDS011;5638;50.860;4.698;2022-12-24T08:23:22;17.63;;;4.07;;
8849;SDS011;5638;50.860;4.698;2022-12-24T08:25:48;21.70;;;5.30;;
8849;SDS011;5638;50.860;4.698;2022-12-24T08:28:15;16.43;;;4.40;;
8849;SDS011;5638;50.860;4.698;2022-12-24T08:30:44;17.43;;;4.33;;
8849;SDS011;5638;50.860;4.698;2022-12-24T08:33:12;19.87;;;4.90;;
8849;SDS011;5638;50.860;4.698;2022-12-24T08:35:38;22.17;;;5.13;;
8849;SDS011;5638;50.860;4.698;2022-12-24T08:38:04;19.40;;;4.10;;
8849;SDS011;5638;50.860;4.698;2022-12-24T08:40:30;18.03;;;4.23;;
8849;SDS011;5638;50.860;4.698;2022-12-24T08:42:56;18.70;;;5.10;;
8849;SDS011;5638;50.860;4.698;2022-12-24T08:45:22;18.93;;;4.83;;
8849;SDS011;5638;50.860;4.698;2022-12-24T08:47:48;15.10;;;3.83;;
8849;SDS011;5638;50.860;4.698;2022-12-24T08:50:14;13.27;;;3.93;;
8849;SDS011;5638;50.860;4.698;2022-12-24T08:52:40;21.03;;;4.53;;
8849;SDS011;5638;50.860;4.698;2022-12-24T08:55:06;16.53;;;4.57;;
8849;SDS011;5638;50.860;4.698;2022-12-24T08:57:35;16.70;;;4.00;;
8849;SDS011;5638;50.860;4.698;2022-12-24T09:00:03;17.10;;;4.27;;
8849;SDS011;5638;50.860;4.698;2022-12-24T09:02:32;21.93;;;4.13;;
8849;SDS011;5638;50.860;4.698;2022-12-24T09:04:58;18.83;;;4.97;;
8849;SDS011;5638;50.860;4.698;2022-12-24T09:07:24;19.53;;;4.40;;
8849;SDS011;5638;50.860;4.698;2022-12-24T09:09:50;21.60;;;5.23;;
8849;SDS011;5638;50.860;4.698;2022-12-24T09:12:15;20.10;;;3.97;;
8849;SDS011;5638;50.860;4.698;2022-12-24T09:14:41;20.93;;;4.17;;
8849;SDS011;5638;50.860;4.698;2022-12-24T09:17:07;21.37;;;4.70;;
8849;SDS011;5638;50.860;4.698;2022-12-24T09:19:33;14.00;;;4.27;;
8849;SDS011;5638;50.860;4.698;2022-12-24T09:21:59;18.00;;;4.13;;
8849;SDS011;5638;50.860;4.698;2022-12-24T09:24:24;22.13;;;4.97;;
8849;SDS011;5638;50.860;4.698;2022-12-24T09:26:51;15.53;;;4.77;;
8849;SDS011;5638;50.860;4.698;2022-12-24T09:29:17;21.53;;;5.03;;
8849;SDS011;5638;50.860;4.698;2022-12-24T09:31:43;20.50;;;4.17;;
8849;SDS011;5638;50.860;4.698;2022-12-24T09:34:09;20.67;;;4.63;;
8849;SDS011;5638;50.860;4.698;2022-12-24T09:36:34;14.57;;;4.20;;
8849;SDS011;5638;50.860;4.698;2022-12-24T09:39:00;22.13;;;4.33;;
8849;SDS011;5638;50.860;4.698;2022-12-24T09:47:11;16.73;;;4.93;;
8849;SDS011;5638;50.860;4.698;2022-12-24T09:49:44;18.17;;;4.37;;
8849;SDS011;5638;50.860;4.698;2022-12-24T09:52:16;21.83;;;4.80;;
8849;SDS011;5638;50.860;4.698;2022-12-24T09:55:22;21.27;;;4.30;;
8849;SDS011;5638;50.860;4.698;2022-12-24T09:57:56;15.40;;;4.47;;
8849;SDS011;5638;50.860;4.698;2022-12-24T10:00:30;21.90;;;4.83;;
8849;SDS011;5638;50.860;4.698;2022-12-24T10:03:08;14.90;;;4.63;;
8849;SDS011;5638;50.860;4.698;2022-12-24T10:11:29;16.40;;;4.60;;
8849;SDS011;5638;50.860;4.698;2022-12-24T10:14:36;23.70;;;4.53;;
8849;SDS011;5638;50.860;4.698;2022-12-24T10:31:22;15.20;;;4.67;;
8849;SDS011;5638;50.860;4.698;2022-12-24T10:33:55;20.23;;;4.90;;
8849;SDS011;5638;50.860;4.698;2022-12-24T10:36:27;19.33;;;4.60;;
8849;SDS011;5638;50.860;4.698;2022-12-24T10:38:55;21.23;;;4.93;;
8849;SDS011;5638;50.860;4.698;2022-12-24T10:41:22;19.03;;;4.47;;
8849;SDS011;5638;50.860;4.698;2022-12-24T10:43:52;18.43;;;4.40;;
8849;SDS011;5638;50.860;4.698;2022-12-24T10:49:02;15.30;;;4.00;;
8849;SDS011;5638;50.860;4.698;2022-12-24T10:51:45;18.77;;;4.23;;
8849;SDS011;5638;50.860;4.698;2022-12-24T10:54:24;18.90;;;4.67;;
8849;SDS011;5638;50.860;4.698;2022-12-24T10:56:57;21.23;;;4.70;;
8849;SDS011;5638;50.860;4.698;2022-12-24T10:59:27;24.10;;;4.90;;
8849;SDS011;5638;50.860;4.698;2022-12-24T11:02:30;17.03;;;4.10;;
8849;SDS011;5638;50.860;4.698;2022-12-24T11:05:06;26.23;;;4.90;;
8849;SDS011;5638;50.860;4.698;2022-12-24T11:08:00;15.50;;;4.17;;
8849;SDS011;5638;50.860;4.698;2022-12-24T11:10:41;17.87;;;5.00;;
8849;SDS011;5638;50.860;4.698;2022-12-24T11:13:21;20.63;;;5.40;;
8849;SDS011;5638;50.860;4.698;2022-12-24T11:18:58;17.30;;;4.27;;
8849;SDS011;5638;50.860;4.698;2022-12-24T11:23:57;21.97;;;4.60;;
8849;SDS011;5638;50.860;4.698;2022-12-24T11:26:41;15.50;;;4.80;;
8849;SDS011;5638;50.860;4.698;2022-12-24T11:29:22;15.17;;;4.10;;
8849;SDS011;5638;50.860;4.698;2022-12-24T11:31:51;18.63;;;4.50;;
8849;SDS011;5638;50.860;4.698;2022-12-24T11:34:41;15.73;;;4.60;;
8849;SDS011;5638;50.860;4.698;2022-12-24T11:37:21;18.10;;;4.10;;
8849;SDS011;5638;50.860;4.698;2022-12-24T11:39:50;15.13;;;4.53;;
8849;SDS011;5638;50.860;4.698;2022-12-24T11:42:29;21.03;;;4.33;;
8849;SDS011;5638;50.860;4.698;2022-12-24T11:45:00;17.53;;;4.43;;
8849;SDS011;5638;50.860;4.698;2022-12-24T11:47:33;18.53;;;4.43;;
8849;SDS011;5638;50.860;4.698;2022-12-24T11:50:18;17.67;;;4.57;;
8849;SDS011;5638;50.860;4.698;2022-12-24T11:55:41;13.60;;;4.03;;
8849;SDS011;5638;50.860;4.698;2022-12-24T11:58:27;16.40;;;4.33;;
8849;SDS011;5638;50.860;4.698;2022-12-24T12:01:26;16.90;;;4.33;;
8849;SDS011;5638;50.860;4.698;2022-12-24T12:04:05;13.37;;;3.33;;
8849;SDS011;5638;50.860;4.698;2022-12-24T12:09:33;18.30;;;4.17;;
8849;SDS011;5638;50.860;4.698;2022-12-24T12:14:37;15.53;;;4.20;;
8849;SDS011;5638;50.860;4.698;2022-12-24T12:25:43;17.93;;;4.17;;
8849;SDS011;5638;50.860;4.698;2022-12-24T12:28:27;14.33;;;4.10;;
8849;SDS011;5638;50.860;4.698;2022-12-24T12:33:56;11.13;;;4.17;;
8849;SDS011;5638;50.860;4.698;2022-12-24T12:36:33;16.80;;;3.77;;
8849;SDS011;5638;50.860;4.698;2022-12-24T12:39:17;15.77;;;4.03;;
8849;SDS011;5638;50.860;4.698;2022-12-24T12:47:58;14.90;;;4.40;;
8849;SDS011;5638;50.860;4.698;2022-12-24T12:50:52;13.60;;;4.10;;
8849;SDS011;5638;50.860;4.698;2022-12-24T12:56:33;14.93;;;4.43;;
8849;SDS011;5638;50.860;4.698;2022-12-24T12:59:02;11.13;;;3.53;;
8849;SDS011;5638;50.860;4.698;2022-12-24T13:07:08;10.67;;;3.27;;
8849;SDS011;5638;50.860;4.698;2022-12-24T13:12:54;15.23;;;3.87;;
8849;SDS011;5638;50.860;4.698;2022-12-24T13:21:23;13.53;;;4.03;;
8849;SDS011;5638;50.860;4.698;2022-12-24T13:27:03;11.87;;;2.90;;
8849;SDS011;5638;50.860;4.698;2022-12-24T13:32:58;21.60;;;4.17;;
8849;SDS011;5638;50.860;4.698;2022-12-24T13:35:31;16.90;;;4.80;;
8849;SDS011;5638;50.860;4.698;2022-12-24T13:38:28;17.77;;;4.50;;
8849;SDS011;5638;50.860;4.698;2022-12-24T13:40:54;14.60;;;3.57;;
8849;SDS011;5638;50.860;4.698;2022-12-24T13:44:03;17.20;;;4.33;;
8849;SDS011;5638;50.860;4.698;2022-12-24T13:49:49;9.77;;;3.33;;
8849;SDS011;5638;50.860;4.698;2022-12-24T13:52:20;14.40;;;3.67;;
8849;SDS011;5638;50.860;4.698;2022-12-24T13:57:30;10.83;;;3.77;;
8849;SDS011;5638;50.860;4.698;2022-12-24T14:08:13;15.63;;;3.50;;
8849;SDS011;5638;50.860;4.698;2022-12-24T14:11:02;11.77;;;3.27;;
8849;SDS011;5638;50.860;4.698;2022-12-24T14:16:06;12.97;;;3.90;;
8849;SDS011;5638;50.860;4.698;2022-12-24T14:22:02;14.50;;;4.03;;
8849;SDS011;5638;50.860;4.698;2022-12-24T14:24:46;9.60;;;3.20;;
8849;SDS011;5638;50.860;4.698;2022-12-24T14:27:24;15.77;;;3.37;;
8849;SDS011;5638;50.860;4.698;2022-12-24T14:32:48;10.17;;;3.20;;
8849;SDS011;5638;50.860;4.698;2022-12-24T14:37:44;15.40;;;3.43;;
8849;SDS011;5638;50.860;4.698;2022-12-24T14:40:37;12.83;;;3.70;;
8849;SDS011;5638;50.860;4.698;2022-12-24T14:44:18;10.67;;;3.87;;
8849;SDS011;5638;50.860;4.698;2022-12-24T14:46:45;10.90;;;3.40;;
8849;SDS011;5638;50.860;4.698;2022-12-24T14:52:18;17.30;;;5.00;;
8849;SDS011;5638;50.860;4.698;2022-12-24T14:58:20;12.17;;;3.73;;
8849;SDS011;5638;50.860;4.698;2022-12-24T15:01:01;11.53;;;3.43;;
8849;SDS011;5638;50.860;4.698;2022-12-24T15:03:42;15.77;;;3.90;;
8849;SDS011;5638;50.860;4.698;2022-12-24T15:06:08;13.67;;;3.80;;
8849;SDS011;5638;50.860;4.698;2022-12-24T15:08:45;12.43;;;4.07;;
8849;SDS011;5638;50.860;4.698;2022-12-24T15:11:18;12.57;;;3.60;;
8849;SDS011;5638;50.860;4.698;2022-12-24T15:13:51;19.67;;;4.40;;
8849;SDS011;5638;50.860;4.698;2022-12-24T15:16:26;15.43;;;4.30;;
8849;SDS011;5638;50.860;4.698;2022-12-24T15:18:58;13.97;;;3.67;;
8849;SDS011;5638;50.860;4.698;2022-12-24T15:21:33;18.10;;;3.67;;
8849;SDS011;5638;50.860;4.698;2022-12-24T15:24:22;14.77;;;3.50;;
8849;SDS011;5638;50.860;4.698;2022-12-24T15:26:47;22.10;;;4.23;;
8849;SDS011;5638;50.860;4.698;2022-12-24T15:29:19;21.33;;;5.00;;
8849;SDS011;5638;50.860;4.698;2022-12-24T15:31:55;14.97;;;4.03;;
8849;SDS011;5638;50.860;4.698;2022-12-24T15:34:29;16.40;;;3.60;;
8849;SDS011;5638;50.860;4.698;2022-12-24T15:42:27;11.87;;;4.20;;
8849;SDS011;5638;50.860;4.698;2022-12-24T15:45:04;12.17;;;4.10;;
8849;SDS011;5638;50.860;4.698;2022-12-24T15:47:43;11.53;;;4.60;;
8849;SDS011;5638;50.860;4.698;2022-12-24T15:53:16;19.73;;;5.17;;
8849;SDS011;5638;50.860;4.698;2022-12-24T15:58:32;13.70;;;4.47;;
8849;SDS011;5638;50.860;4.698;2022-12-24T16:03:33;22.47;;;6.13;;
8849;SDS011;5638;50.860;4.698;2022-12-24T16:06:03;19.03;;;6.50;;
8849;SDS011;5638;50.860;4.698;2022-12-24T16:08:39;17.03;;;6.07;;
8849;SDS011;5638;50.860;4.698;2022-12-24T16:11:08;13.70;;;5.93;;
8849;SDS011;5638;50.860;4.698;2022-12-24T16:16:16;19.13;;;5.97;;
8849;SDS011;5638;50.860;4.698;2022-12-24T16:18:57;14.87;;;5.13;;
8849;SDS011;5638;50.860;4.698;2022-12-24T16:21:30;20.87;;;5.70;;
8849;SDS011;5638;50.860;4.698;2022-12-24T16:24:04;17.57;;;5.87;;
8849;SDS011;5638;50.860;4.698;2022-12-24T16:26:46;18.23;;;5.27;;
8849;SDS011;5638;50.860;4.698;2022-12-24T16:29:13;12.97;;;4.87;;
8849;SDS011;5638;50.860;4.698;2022-12-24T16:34:52;15.00;;;5.13;;
8849;SDS011;5638;50.860;4.698;2022-12-24T16:37:18;18.50;;;5.57;;
8849;SDS011;5638;50.860;4.698;2022-12-24T16:39:43;17.07;;;4.97;;
8849;SDS011;5638;50.860;4.698;2022-12-24T16:42:10;20.30;;;5.73;;
8849;SDS011;5638;50.860;4.698;2022-12-24T16:44:55;24.43;;;5.80;;
8849;SDS011;5638;50.860;4.698;2022-12-24T16:47:23;14.17;;;5.93;;
8849;SDS011;5638;50.860;4.698;2022-12-24T16:49:55;19.83;;;6.17;;
8849;SDS011;5638;50.860;4.698;2022-12-24T16:52:25;18.33;;;6.03;;
8849;SDS011;5638;50.860;4.698;2022-12-24T16:54:54;20.07;;;5.83;;
8849;SDS011;5638;50.860;4.698;2022-12-24T16:57:21;19.47;;;7.07;;
8849;SDS011;5638;50.860;4.698;2022-12-24T16:59:48;19.20;;;7.20;;
8849;SDS011;5638;50.860;4.698;2022-12-24T17:02:16;19.50;;;5.73;;
8849;SDS011;5638;50.860;4.698;2022-12-24T17:04:45;18.00;;;6.03;;
8849;SDS011;5638;50.860;4.698;2022-12-24T17:07:12;17.77;;;6.23;;
8849;SDS011;5638;50.860;4.698;2022-12-24T17:09:42;14.93;;;6.00;;
8849;SDS011;5638;50.860;4.698;2022-12-24T17:12:08;17.83;;;5.50;;
8849;SDS011;5638;50.860;4.698;2022-12-24T17:14:35;23.47;;;6.47;;
8849;SDS011;5638;50.860;4.698;2022-12-24T17:17:04;18.17;;;6.77;;
8849;SDS011;5638;50.860;4.698;2022-12-24T17:19:30;21.43;;;7.13;;
8849;SDS011;5638;50.860;4.698;2022-12-24T17:21:56;19.23;;;8.03;;
8849;SDS011;5638;50.860;4.698;2022-12-24T17:24:22;17.97;;;6.23;;
8849;SDS011;5638;50.860;4.698;2022-12-24T17:26:49;22.40;;;7.23;;
8849;SDS011;5638;50.860;4.698;2022-12-24T17:29:15;17.70;;;6.23;;
8849;SDS011;5638;50.860;4.698;2022-12-24T17:31:40;13.27;;;5.50;;
8849;SDS011;5638;50.860;4.698;2022-12-24T17:34:06;16.47;;;6.27;;
8849;SDS011;5638;50.860;4.698;2022-12-24T17:36:33;20.43;;;5.77;;
8849;SDS011;5638;50.860;4.698;2022-12-24T17:38:59;19.93;;;7.10;;
8849;SDS011;5638;50.860;4.698;2022-12-24T17:41:25;20.80;;;7.17;;
8849;SDS011;5638;50.860;4.698;2022-12-24T17:43:51;22.80;;;6.67;;
8849;SDS011;5638;50.860;4.698;2022-12-24T17:46:18;22.13;;;7.13;;
8849;SDS011;5638;50.860;4.698;2022-12-24T17:48:47;17.17;;;6.67;;
8849;SDS011;5638;50.860;4.698;2022-12-24T17:51:14;19.20;;;5.30;;
8849;SDS011;5638;50.860;4.698;2022-12-24T17:53:45;19.70;;;6.80;;
8849;SDS011;5638;50.860;4.698;2022-12-24T17:56:12;15.57;;;5.63;;
8849;SDS011;5638;50.860;4.698;2022-12-24T17:58:40;17.20;;;5.83;;
8849;SDS011;5638;50.860;4.698;2022-12-24T18:01:15;17.97;;;6.33;;
8849;SDS011;5638;50.860;4.698;2022-12-24T18:03:45;18.80;;;5.93;;
8849;SDS011;5638;50.860;4.698;2022-12-24T18:06:14;15.57;;;5.73;;
8849;SDS011;5638;50.860;4.698;2022-12-24T18:08:41;22.47;;;5.77;;